sensor_id;sensor_type;location;lat;lon;timestamp;temperature;humidity
14924;DHT22;7554;43.600;1.480;2022-09-01T00:01:10;22.70;1.00
14924;DHT22;7554;43.600;1.480;2022-09-01T00:03:39;22.70;1.00
14924;DHT22;7554;43.600;1.480;2022-09-01T00:06:07;22.60;1.00
14924;DHT22;7554;43.600;1.480;2022-09-01T00:08:37;22.60;1.00
14924;DHT22;7554;43.600;1.480;2022-09-01T00:11:05;22.60;1.00
14924;DHT22;7554;43.600;1.480;2022-09-01T00:13:32;22.50;1.00
14924;DHT22;7554;43.600;1.480;2022-09-01T00:16:00;22.60;1.00
14924;DHT22;7554;43.600;1.480;2022-09-01T00:18:29;22.50;1.00
14924;DHT22;7554;43.600;1.480;2022-09-01T00:20:57;22.50;1.00
14924;DHT22;7554;43.600;1.480;2022-09-01T00:23:26;22.50;1.00
14924;DHT22;7554;43.600;1.480;2022-09-01T00:25:55;22.50;1.00
14924;DHT22;7554;43.600;1.480;2022-09-01T00:28:23;22.50;1.00
14924;DHT22;7554;43.600;1.480;2022-09-01T00:30:50;22.40;1.00
14924;DHT22;7554;43.600;1.480;2022-09-01T00:33:18;22.40;1.00
14924;DHT22;7554;43.600;1.480;2022-09-01T00:35:46;22.30;1.00
14924;DHT22;7554;43.600;1.480;2022-09-01T00:38:13;22.30;1.00
14924;DHT22;7554;43.600;1.480;2022-09-01T00:40:40;22.30;1.00
14924;DHT22;7554;43.600;1.480;2022-09-01T00:43:14;22.20;1.00
14924;DHT22;7554;43.600;1.480;2022-09-01T00:45:42;22.20;1.00
14924;DHT22;7554;43.600;1.480;2022-09-01T00:48:17;22.20;1.00
14924;DHT22;7554;43.600;1.480;2022-09-01T00:50:46;22.10;1.00
14924;DHT22;7554;43.600;1.480;2022-09-01T00:53:14;22.10;1.00
14924;DHT22;7554;43.600;1.480;2022-09-01T00:55:41;22.10;1.00
14924;DHT22;7554;43.600;1.480;2022-09-01T00:58:09;22.10;1.00
14924;DHT22;7554;43.600;1.480;2022-09-01T01:00:38;22.00;1.00
14924;DHT22;7554;43.600;1.480;2022-09-01T01:03:08;22.00;1.00
14924;DHT22;7554;43.600;1.480;2022-09-01T01:05:38;21.90;1.00
14924;DHT22;7554;43.600;1.480;2022-09-01T01:08:08;21.90;1.00
14924;DHT22;7554;43.600;1.480;2022-09-01T01:10:40;21.90;1.00
14924;DHT22;7554;43.600;1.480;2022-09-01T01:13:11;21.80;1.00
14924;DHT22;7554;43.600;1.480;2022-09-01T01:15:40;21.80;1.00
14924;DHT22;7554;43.600;1.480;2022-09-01T01:18:09;21.80;1.00
14924;DHT22;7554;43.600;1.480;2022-09-01T01:20:37;21.80;1.00
14924;DHT22;7554;43.600;1.480;2022-09-01T01:23:26;21.80;1.00
14924;DHT22;7554;43.600;1.480;2022-09-01T01:25:58;21.80;1.00
14924;DHT22;7554;43.600;1.480;2022-09-01T01:28:29;21.70;1.00
14924;DHT22;7554;43.600;1.480;2022-09-01T01:31:03;21.70;1.00
14924;DHT22;7554;43.600;1.480;2022-09-01T01:33:33;21.70;1.00
14924;DHT22;7554;43.600;1.480;2022-09-01T01:36:07;21.60;1.00
14924;DHT22;7554;43.600;1.480;2022-09-01T01:38:38;21.60;1.00
14924;DHT22;7554;43.600;1.480;2022-09-01T01:41:09;21.50;1.00
14924;DHT22;7554;43.600;1.480;2022-09-01T01:43:37;21.50;1.00
14924;DHT22;7554;43.600;1.480;2022-09-01T01:46:06;21.40;1.00
14924;DHT22;7554;43.600;1.480;2022-09-01T01:48:35;21.40;1.00
14924;DHT22;7554;43.600;1.480;2022-09-01T01:51:04;21.40;1.00
14924;DHT22;7554;43.600;1.480;2022-09-01T01:53:32;21.40;1.00
14924;DHT22;7554;43.600;1.480;2022-09-01T01:56:00;21.40;1.00
14924;DHT22;7554;43.600;1.480;2022-09-01T01:58:29;21.40;1.00
14924;DHT22;7554;43.600;1.480;2022-09-01T02:00:57;21.40;1.00
14924;DHT22;7554;43.600;1.480;2022-09-01T02:03:29;21.40;1.00
14924;DHT22;7554;43.600;1.480;2022-09-01T02:06:04;21.30;1.00
14924;DHT22;7554;43.600;1.480;2022-09-01T02:08:35;21.30;1.00
14924;DHT22;7554;43.600;1.480;2022-09-01T02:11:04;21.30;1.00
14924;DHT22;7554;43.600;1.480;2022-09-01T02:13:33;21.30;1.00
14924;DHT22;7554;43.600;1.480;2022-09-01T02:16:02;21.20;1.00
14924;DHT22;7554;43.600;1.480;2022-09-01T02:18:34;21.20;1.00
14924;DHT22;7554;43.600;1.480;2022-09-01T02:21:04;21.20;1.00
14924;DHT22;7554;43.600;1.480;2022-09-01T02:23:37;21.30;1.00
14924;DHT22;7554;43.600;1.480;2022-09-01T02:26:07;21.30;1.00
14924;DHT22;7554;43.600;1.480;2022-09-01T02:28:39;21.30;1.00
14924;DHT22;7554;43.600;1.480;2022-09-01T02:31:08;21.30;1.00
14924;DHT22;7554;43.600;1.480;2022-09-01T02:33:37;21.40;1.00
14924;DHT22;7554;43.600;1.480;2022-09-01T02:36:09;21.40;1.00
14924;DHT22;7554;43.600;1.480;2022-09-01T02:38:38;21.40;1.00
14924;DHT22;7554;43.600;1.480;2022-09-01T02:41:08;21.50;1.00
14924;DHT22;7554;43.600;1.480;2022-09-01T02:43:36;21.50;1.00
14924;DHT22;7554;43.600;1.480;2022-09-01T02:46:05;21.50;1.00
14924;DHT22;7554;43.600;1.480;2022-09-01T02:48:35;21.50;1.00
14924;DHT22;7554;43.600;1.480;2022-09-01T02:51:04;21.40;1.00
14924;DHT22;7554;43.600;1.480;2022-09-01T02:53:32;21.40;1.00
14924;DHT22;7554;43.600;1.480;2022-09-01T02:56:00;21.40;1.00
14924;DHT22;7554;43.600;1.480;2022-09-01T02:58:30;21.40;1.00
14924;DHT22;7554;43.600;1.480;2022-09-01T03:00:59;21.40;1.00
14924;DHT22;7554;43.600;1.480;2022-09-01T03:03:27;21.50;1.00
14924;DHT22;7554;43.600;1.480;2022-09-01T03:05:54;21.40;1.00
14924;DHT22;7554;43.600;1.480;2022-09-01T03:08:23;21.30;1.00
14924;DHT22;7554;43.600;1.480;2022-09-01T03:10:51;21.30;1.00
14924;DHT22;7554;43.600;1.480;2022-09-01T03:13:22;21.40;1.00
14924;DHT22;7554;43.600;1.480;2022-09-01T03:15:50;21.40;1.00
14924;DHT22;7554;43.600;1.480;2022-09-01T03:18:19;21.40;1.00
14924;DHT22;7554;43.600;1.480;2022-09-01T03:20:46;21.40;1.00
14924;DHT22;7554;43.600;1.480;2022-09-01T03:23:17;21.40;1.00
14924;DHT22;7554;43.600;1.480;2022-09-01T03:25:46;21.30;1.00
14924;DHT22;7554;43.600;1.480;2022-09-01T03:28:14;21.40;1.00
14924;DHT22;7554;43.600;1.480;2022-09-01T03:30:45;21.40;1.00
14924;DHT22;7554;43.600;1.480;2022-09-01T03:33:14;21.30;1.00
14924;DHT22;7554;43.600;1.480;2022-09-01T03:35:44;21.30;1.00
14924;DHT22;7554;43.600;1.480;2022-09-01T03:38:12;21.40;1.00
14924;DHT22;7554;43.600;1.480;2022-09-01T03:40:50;21.40;1.00
14924;DHT22;7554;43.600;1.480;2022-09-01T03:43:18;21.40;1.00
14924;DHT22;7554;43.600;1.480;2022-09-01T03:45:48;21.40;1.00
14924;DHT22;7554;43.600;1.480;2022-09-01T03:48:15;21.40;1.00
14924;DHT22;7554;43.600;1.480;2022-09-01T03:50:45;21.30;1.00
14924;DHT22;7554;43.600;1.480;2022-09-01T03:53:14;21.30;1.00
14924;DHT22;7554;43.600;1.480;2022-09-01T03:55:43;21.30;1.00
14924;DHT22;7554;43.600;1.480;2022-09-01T03:58:13;21.30;1.00
14924;DHT22;7554;43.600;1.480;2022-09-01T04:00:46;21.30;1.00
14924;DHT22;7554;43.600;1.480;2022-09-01T04:03:15;21.30;1.00
14924;DHT22;7554;43.600;1.480;2022-09-01T04:05:50;21.40;1.00
14924;DHT22;7554;43.600;1.480;2022-09-01T04:08:19;21.40;1.00
14924;DHT22;7554;43.600;1.480;2022-09-01T04:10:49;21.40;1.00
14924;DHT22;7554;43.600;1.480;2022-09-01T04:13:19;21.50;1.00
14924;DHT22;7554;43.600;1.480;2022-09-01T04:15:47;21.40;1.00
14924;DHT22;7554;43.600;1.480;2022-09-01T04:18:16;21.40;1.00
14924;DHT22;7554;43.600;1.480;2022-09-01T04:20:47;21.40;1.00
14924;DHT22;7554;43.600;1.480;2022-09-01T04:23:17;21.40;1.00
14924;DHT22;7554;43.600;1.480;2022-09-01T04:25:52;21.40;1.00
14924;DHT22;7554;43.600;1.480;2022-09-01T04:28:22;21.40;1.00
14924;DHT22;7554;43.600;1.480;2022-09-01T04:30:55;21.40;1.00
14924;DHT22;7554;43.600;1.480;2022-09-01T04:33:24;21.40;1.00
14924;DHT22;7554;43.600;1.480;2022-09-01T04:35:52;21.20;1.00
14924;DHT22;7554;43.600;1.480;2022-09-01T04:38:24;21.20;1.00
14924;DHT22;7554;43.600;1.480;2022-09-01T04:40:56;21.10;1.00
14924;DHT22;7554;43.600;1.480;2022-09-01T04:43:24;21.10;1.00
14924;DHT22;7554;43.600;1.480;2022-09-01T04:45:51;21.00;1.00
14924;DHT22;7554;43.600;1.480;2022-09-01T04:48:19;21.10;1.00
14924;DHT22;7554;43.600;1.480;2022-09-01T04:50:47;21.00;1.00
14924;DHT22;7554;43.600;1.480;2022-09-01T04:53:17;21.00;1.00
14924;DHT22;7554;43.600;1.480;2022-09-01T04:55:46;21.00;1.00
14924;DHT22;7554;43.600;1.480;2022-09-01T04:58:16;20.90;1.00
14924;DHT22;7554;43.600;1.480;2022-09-01T05:00:44;21.00;1.00
14924;DHT22;7554;43.600;1.480;2022-09-01T05:03:15;21.00;1.00
14924;DHT22;7554;43.600;1.480;2022-09-01T05:05:46;20.90;1.00
14924;DHT22;7554;43.600;1.480;2022-09-01T05:08:16;20.90;1.00
14924;DHT22;7554;43.600;1.480;2022-09-01T05:10:47;20.90;1.00
14924;DHT22;7554;43.600;1.480;2022-09-01T05:13:19;20.90;1.00
14924;DHT22;7554;43.600;1.480;2022-09-01T05:15:59;20.90;1.00
14924;DHT22;7554;43.600;1.480;2022-09-01T05:18:28;20.90;1.00
14924;DHT22;7554;43.600;1.480;2022-09-01T05:20:55;21.10;1.00
14924;DHT22;7554;43.600;1.480;2022-09-01T05:23:23;21.20;1.00
14924;DHT22;7554;43.600;1.480;2022-09-01T05:25:52;21.30;1.00
14924;DHT22;7554;43.600;1.480;2022-09-01T05:28:21;21.40;1.00
14924;DHT22;7554;43.600;1.480;2022-09-01T05:30:50;21.30;1.00
14924;DHT22;7554;43.600;1.480;2022-09-01T05:33:19;21.30;1.00
14924;DHT22;7554;43.600;1.480;2022-09-01T05:35:52;21.30;1.00
14924;DHT22;7554;43.600;1.480;2022-09-01T05:38:20;21.30;1.00
14924;DHT22;7554;43.600;1.480;2022-09-01T05:40:56;21.40;1.00
14924;DHT22;7554;43.600;1.480;2022-09-01T05:43:26;21.30;1.00
14924;DHT22;7554;43.600;1.480;2022-09-01T05:45:55;21.40;1.00
14924;DHT22;7554;43.600;1.480;2022-09-01T05:48:23;21.50;1.00
14924;DHT22;7554;43.600;1.480;2022-09-01T05:50:51;21.60;1.00
14924;DHT22;7554;43.600;1.480;2022-09-01T05:53:21;21.50;1.00
14924;DHT22;7554;43.600;1.480;2022-09-01T05:55:51;21.50;1.00
14924;DHT22;7554;43.600;1.480;2022-09-01T05:58:24;21.60;1.00
14924;DHT22;7554;43.600;1.480;2022-09-01T06:00:53;21.60;1.00
14924;DHT22;7554;43.600;1.480;2022-09-01T06:03:24;21.70;1.00
14924;DHT22;7554;43.600;1.480;2022-09-01T06:05:53;21.80;1.00
14924;DHT22;7554;43.600;1.480;2022-09-01T06:08:22;21.90;1.00
14924;DHT22;7554;43.600;1.480;2022-09-01T06:10:50;21.90;1.00
14924;DHT22;7554;43.600;1.480;2022-09-01T06:13:18;22.00;1.00
14924;DHT22;7554;43.600;1.480;2022-09-01T06:15:48;21.90;1.00
14924;DHT22;7554;43.600;1.480;2022-09-01T06:18:16;21.90;1.00
14924;DHT22;7554;43.600;1.480;2022-09-01T06:20:45;21.90;1.00
14924;DHT22;7554;43.600;1.480;2022-09-01T06:23:13;21.90;1.00
14924;DHT22;7554;43.600;1.480;2022-09-01T06:25:43;22.10;1.00
14924;DHT22;7554;43.600;1.480;2022-09-01T06:28:12;22.10;1.00
14924;DHT22;7554;43.600;1.480;2022-09-01T06:30:39;22.10;1.00
14924;DHT22;7554;43.600;1.480;2022-09-01T06:33:09;22.20;1.00
14924;DHT22;7554;43.600;1.480;2022-09-01T06:35:38;22.30;1.00
14924;DHT22;7554;43.600;1.480;2022-09-01T06:38:08;22.40;1.00
14924;DHT22;7554;43.600;1.480;2022-09-01T06:40:35;22.50;1.00
14924;DHT22;7554;43.600;1.480;2022-09-01T06:43:07;22.60;1.00
14924;DHT22;7554;43.600;1.480;2022-09-01T06:45:40;22.60;1.00
14924;DHT22;7554;43.600;1.480;2022-09-01T06:48:10;22.70;1.00
14924;DHT22;7554;43.600;1.480;2022-09-01T06:50:42;22.80;1.00
14924;DHT22;7554;43.600;1.480;2022-09-01T06:53:11;22.70;1.00
14924;DHT22;7554;43.600;1.480;2022-09-01T06:55:41;22.70;1.00
14924;DHT22;7554;43.600;1.480;2022-09-01T06:58:10;22.80;1.00
14924;DHT22;7554;43.600;1.480;2022-09-01T07:00:41;22.80;1.00
14924;DHT22;7554;43.600;1.480;2022-09-01T07:03:12;22.90;1.00
14924;DHT22;7554;43.600;1.480;2022-09-01T07:05:41;23.00;1.00
14924;DHT22;7554;43.600;1.480;2022-09-01T07:08:12;23.10;1.00
14924;DHT22;7554;43.600;1.480;2022-09-01T07:10:44;23.10;1.00
14924;DHT22;7554;43.600;1.480;2022-09-01T07:13:14;23.10;1.00
14924;DHT22;7554;43.600;1.480;2022-09-01T07:15:45;22.90;1.00
14924;DHT22;7554;43.600;1.480;2022-09-01T07:18:16;23.20;1.00
14924;DHT22;7554;43.600;1.480;2022-09-01T07:20:46;23.20;1.00
14924;DHT22;7554;43.600;1.480;2022-09-01T07:23:14;23.20;1.00
14924;DHT22;7554;43.600;1.480;2022-09-01T07:25:44;23.40;1.00
14924;DHT22;7554;43.600;1.480;2022-09-01T07:28:13;23.50;1.00
14924;DHT22;7554;43.600;1.480;2022-09-01T07:30:43;24.00;1.00
14924;DHT22;7554;43.600;1.480;2022-09-01T07:33:15;25.10;1.00
14924;DHT22;7554;43.600;1.480;2022-09-01T07:35:46;24.90;1.00
14924;DHT22;7554;43.600;1.480;2022-09-01T07:38:14;24.60;1.00
14924;DHT22;7554;43.600;1.480;2022-09-01T07:40:45;24.50;1.00
14924;DHT22;7554;43.600;1.480;2022-09-01T07:43:16;24.20;1.00
14924;DHT22;7554;43.600;1.480;2022-09-01T07:45:48;23.90;1.00
14924;DHT22;7554;43.600;1.480;2022-09-01T07:48:18;24.20;1.00
14924;DHT22;7554;43.600;1.480;2022-09-01T07:50:47;24.50;1.00
14924;DHT22;7554;43.600;1.480;2022-09-01T07:53:15;24.40;1.00
14924;DHT22;7554;43.600;1.480;2022-09-01T07:55:44;24.30;1.00
14924;DHT22;7554;43.600;1.480;2022-09-01T07:58:11;24.10;1.00
14924;DHT22;7554;43.600;1.480;2022-09-01T08:00:40;24.40;1.00
14924;DHT22;7554;43.600;1.480;2022-09-01T08:03:09;24.90;1.00
14924;DHT22;7554;43.600;1.480;2022-09-01T08:05:38;25.50;1.00
14924;DHT22;7554;43.600;1.480;2022-09-01T08:08:06;25.50;1.00
14924;DHT22;7554;43.600;1.480;2022-09-01T08:10:33;25.00;1.00
14924;DHT22;7554;43.600;1.480;2022-09-01T08:13:00;24.90;1.00
14924;DHT22;7554;43.600;1.480;2022-09-01T08:15:28;24.80;1.00
14924;DHT22;7554;43.600;1.480;2022-09-01T08:17:55;24.60;1.00
14924;DHT22;7554;43.600;1.480;2022-09-01T08:20:22;24.40;1.00
14924;DHT22;7554;43.600;1.480;2022-09-01T08:22:51;24.40;1.00
14924;DHT22;7554;43.600;1.480;2022-09-01T08:25:19;24.70;1.00
14924;DHT22;7554;43.600;1.480;2022-09-01T08:27:46;24.90;1.00
14924;DHT22;7554;43.600;1.480;2022-09-01T08:30:14;25.00;1.00
14924;DHT22;7554;43.600;1.480;2022-09-01T08:32:41;25.00;1.00
14924;DHT22;7554;43.600;1.480;2022-09-01T08:35:09;25.00;1.00
14924;DHT22;7554;43.600;1.480;2022-09-01T08:37:37;25.20;1.00
14924;DHT22;7554;43.600;1.480;2022-09-01T08:40:09;25.60;1.00
14924;DHT22;7554;43.600;1.480;2022-09-01T08:42:47;26.10;1.00
14924;DHT22;7554;43.600;1.480;2022-09-01T08:45:21;25.90;1.00
14924;DHT22;7554;43.600;1.480;2022-09-01T08:47:52;25.70;1.00
14924;DHT22;7554;43.600;1.480;2022-09-01T08:50:20;25.40;1.00
14924;DHT22;7554;43.600;1.480;2022-09-01T08:52:54;25.60;1.00
14924;DHT22;7554;43.600;1.480;2022-09-01T08:55:31;25.60;1.00
14924;DHT22;7554;43.600;1.480;2022-09-01T08:58:03;25.60;1.00
14924;DHT22;7554;43.600;1.480;2022-09-01T09:00:37;25.60;1.00
14924;DHT22;7554;43.600;1.480;2022-09-01T09:03:14;25.40;1.00
14924;DHT22;7554;43.600;1.480;2022-09-01T09:05:56;25.30;1.00
14924;DHT22;7554;43.600;1.480;2022-09-01T09:08:41;25.40;1.00
14924;DHT22;7554;43.600;1.480;2022-09-01T09:14:12;25.40;1.00
14924;DHT22;7554;43.600;1.480;2022-09-01T09:16:42;25.40;1.00
14924;DHT22;7554;43.600;1.480;2022-09-01T09:19:17;25.60;1.00
14924;DHT22;7554;43.600;1.480;2022-09-01T09:21:48;25.30;1.00
14924;DHT22;7554;43.600;1.480;2022-09-01T09:24:22;25.40;1.00
14924;DHT22;7554;43.600;1.480;2022-09-01T09:26:53;25.50;1.00
14924;DHT22;7554;43.600;1.480;2022-09-01T09:29:21;25.30;1.00
14924;DHT22;7554;43.600;1.480;2022-09-01T09:32:01;25.20;1.00
14924;DHT22;7554;43.600;1.480;2022-09-01T09:34:32;24.90;1.00
14924;DHT22;7554;43.600;1.480;2022-09-01T09:37:24;25.40;1.00
14924;DHT22;7554;43.600;1.480;2022-09-01T09:40:04;25.90;1.00
14924;DHT22;7554;43.600;1.480;2022-09-01T09:42:34;26.10;1.00
14924;DHT22;7554;43.600;1.480;2022-09-01T09:45:12;26.40;1.00
14924;DHT22;7554;43.600;1.480;2022-09-01T09:47:45;26.60;1.00
14924;DHT22;7554;43.600;1.480;2022-09-01T09:50:20;26.70;1.00
14924;DHT22;7554;43.600;1.480;2022-09-01T09:52:48;26.90;1.00
14924;DHT22;7554;43.600;1.480;2022-09-01T09:55:25;27.20;1.00
14924;DHT22;7554;43.600;1.480;2022-09-01T09:57:57;27.70;1.00
14924;DHT22;7554;43.600;1.480;2022-09-01T10:00:27;28.30;1.00
14924;DHT22;7554;43.600;1.480;2022-09-01T10:02:58;28.80;1.00
14924;DHT22;7554;43.600;1.480;2022-09-01T10:05:39;28.90;1.00
14924;DHT22;7554;43.600;1.480;2022-09-01T10:08:09;28.70;1.00
14924;DHT22;7554;43.600;1.480;2022-09-01T10:10:40;27.60;1.00
14924;DHT22;7554;43.600;1.480;2022-09-01T10:13:11;27.50;1.00
14924;DHT22;7554;43.600;1.480;2022-09-01T10:15:40;27.50;1.00
14924;DHT22;7554;43.600;1.480;2022-09-01T10:18:13;27.70;1.00
14924;DHT22;7554;43.600;1.480;2022-09-01T10:20:44;27.80;1.00
14924;DHT22;7554;43.600;1.480;2022-09-01T10:23:13;28.20;1.00
14924;DHT22;7554;43.600;1.480;2022-09-01T10:25:42;27.80;1.00
14924;DHT22;7554;43.600;1.480;2022-09-01T10:28:15;28.20;1.00
14924;DHT22;7554;43.600;1.480;2022-09-01T10:30:45;28.50;1.00
14924;DHT22;7554;43.600;1.480;2022-09-01T10:33:17;28.40;1.00
14924;DHT22;7554;43.600;1.480;2022-09-01T10:35:47;28.60;1.00
14924;DHT22;7554;43.600;1.480;2022-09-01T10:38:17;28.40;1.00
14924;DHT22;7554;43.600;1.480;2022-09-01T10:40:47;28.40;1.00
14924;DHT22;7554;43.600;1.480;2022-09-01T10:43:39;28.10;1.00
14924;DHT22;7554;43.600;1.480;2022-09-01T10:46:09;28.00;1.00
14924;DHT22;7554;43.600;1.480;2022-09-01T10:48:46;27.50;1.00
14924;DHT22;7554;43.600;1.480;2022-09-01T10:51:40;27.10;1.00
14924;DHT22;7554;43.600;1.480;2022-09-01T10:54:08;27.20;1.00
14924;DHT22;7554;43.600;1.480;2022-09-01T10:56:38;27.20;1.00
14924;DHT22;7554;43.600;1.480;2022-09-01T10:59:10;27.20;1.00
14924;DHT22;7554;43.600;1.480;2022-09-01T11:02:09;27.20;1.00
14924;DHT22;7554;43.600;1.480;2022-09-01T11:07:52;26.60;1.00
14924;DHT22;7554;43.600;1.480;2022-09-01T11:10:45;26.30;1.00
14924;DHT22;7554;43.600;1.480;2022-09-01T11:13:38;25.80;1.00
14924;DHT22;7554;43.600;1.480;2022-09-01T11:16:31;25.90;1.00
14924;DHT22;7554;43.600;1.480;2022-09-01T11:19:35;26.40;1.00
14924;DHT22;7554;43.600;1.480;2022-09-01T11:22:27;25.90;1.00
14924;DHT22;7554;43.600;1.480;2022-09-01T11:31:21;26.50;1.00
14924;DHT22;7554;43.600;1.480;2022-09-01T11:33:58;26.60;1.00
14924;DHT22;7554;43.600;1.480;2022-09-01T11:36:30;26.80;1.00
14924;DHT22;7554;43.600;1.480;2022-09-01T11:39:06;26.60;1.00
14924;DHT22;7554;43.600;1.480;2022-09-01T11:41:45;26.50;1.00
14924;DHT22;7554;43.600;1.480;2022-09-01T11:44:22;26.50;1.00
14924;DHT22;7554;43.600;1.480;2022-09-01T11:46:51;26.60;1.00
14924;DHT22;7554;43.600;1.480;2022-09-01T11:49:30;26.60;1.00
14924;DHT22;7554;43.600;1.480;2022-09-01T11:51:58;26.50;1.00
14924;DHT22;7554;43.600;1.480;2022-09-01T11:54:28;26.70;1.00
14924;DHT22;7554;43.600;1.480;2022-09-01T11:56:56;27.00;1.00
14924;DHT22;7554;43.600;1.480;2022-09-01T11:59:34;27.00;1.00
14924;DHT22;7554;43.600;1.480;2022-09-01T12:02:02;26.80;1.00
14924;DHT22;7554;43.600;1.480;2022-09-01T12:04:33;26.60;1.00
14924;DHT22;7554;43.600;1.480;2022-09-01T12:07:05;26.70;1.00
14924;DHT22;7554;43.600;1.480;2022-09-01T12:09:34;26.50;1.00
14924;DHT22;7554;43.600;1.480;2022-09-01T12:12:03;26.30;1.00
14924;DHT22;7554;43.600;1.480;2022-09-01T12:14:31;26.40;1.00
14924;DHT22;7554;43.600;1.480;2022-09-01T12:17:03;26.30;1.00
14924;DHT22;7554;43.600;1.480;2022-09-01T12:19:33;26.50;1.00
14924;DHT22;7554;43.600;1.480;2022-09-01T12:22:06;26.80;1.00
14924;DHT22;7554;43.600;1.480;2022-09-01T12:24:44;26.90;1.00
14924;DHT22;7554;43.600;1.480;2022-09-01T12:27:12;26.90;1.00
14924;DHT22;7554;43.600;1.480;2022-09-01T12:29:40;26.80;1.00
14924;DHT22;7554;43.600;1.480;2022-09-01T12:32:09;27.10;1.00
14924;DHT22;7554;43.600;1.480;2022-09-01T12:34:43;27.20;1.00
14924;DHT22;7554;43.600;1.480;2022-09-01T12:37:19;27.20;1.00
14924;DHT22;7554;43.600;1.480;2022-09-01T12:39:48;27.00;1.00
14924;DHT22;7554;43.600;1.480;2022-09-01T12:42:27;26.40;1.00
14924;DHT22;7554;43.600;1.480;2022-09-01T12:44:56;26.40;1.00
14924;DHT22;7554;43.600;1.480;2022-09-01T12:47:44;26.50;1.00
14924;DHT22;7554;43.600;1.480;2022-09-01T12:50:43;26.70;1.00
14924;DHT22;7554;43.600;1.480;2022-09-01T12:53:18;26.90;1.00
14924;DHT22;7554;43.600;1.480;2022-09-01T12:56:05;27.10;1.00
14924;DHT22;7554;43.600;1.480;2022-09-01T12:58:45;27.20;1.00
14924;DHT22;7554;43.600;1.480;2022-09-01T13:01:28;27.30;1.00
14924;DHT22;7554;43.600;1.480;2022-09-01T13:04:26;27.30;1.00
14924;DHT22;7554;43.600;1.480;2022-09-01T13:07:06;27.20;1.00
14924;DHT22;7554;43.600;1.480;2022-09-01T13:09:33;27.00;1.00
14924;DHT22;7554;43.600;1.480;2022-09-01T13:12:14;27.00;1.00
14924;DHT22;7554;43.600;1.480;2022-09-01T13:14:42;27.20;1.00
14924;DHT22;7554;43.600;1.480;2022-09-01T13:17:09;27.30;1.00
14924;DHT22;7554;43.600;1.480;2022-09-01T13:19:37;27.60;1.00
14924;DHT22;7554;43.600;1.480;2022-09-01T13:22:06;27.70;1.00
14924;DHT22;7554;43.600;1.480;2022-09-01T13:24:34;27.80;1.00
14924;DHT22;7554;43.600;1.480;2022-09-01T13:27:01;27.80;1.00
14924;DHT22;7554;43.600;1.480;2022-09-01T13:29:29;27.90;1.00
14924;DHT22;7554;43.600;1.480;2022-09-01T13:31:57;27.60;1.00
14924;DHT22;7554;43.600;1.480;2022-09-01T13:34:24;27.40;1.00
14924;DHT22;7554;43.600;1.480;2022-09-01T13:36:51;27.60;1.00
14924;DHT22;7554;43.600;1.480;2022-09-01T13:39:20;27.60;1.00
14924;DHT22;7554;43.600;1.480;2022-09-01T13:41:48;27.70;1.00
14924;DHT22;7554;43.600;1.480;2022-09-01T13:44:15;27.40;1.00
14924;DHT22;7554;43.600;1.480;2022-09-01T13:46:43;27.40;1.00
14924;DHT22;7554;43.600;1.480;2022-09-01T13:49:11;27.20;1.00
14924;DHT22;7554;43.600;1.480;2022-09-01T13:51:38;27.40;1.00
14924;DHT22;7554;43.600;1.480;2022-09-01T13:54:05;27.40;1.00
14924;DHT22;7554;43.600;1.480;2022-09-01T13:56:34;27.60;1.00
14924;DHT22;7554;43.600;1.480;2022-09-01T13:59:02;27.90;1.00
14924;DHT22;7554;43.600;1.480;2022-09-01T14:01:29;28.00;1.00
14924;DHT22;7554;43.600;1.480;2022-09-01T14:03:56;28.20;1.00
14924;DHT22;7554;43.600;1.480;2022-09-01T14:06:24;28.10;1.00
14924;DHT22;7554;43.600;1.480;2022-09-01T14:08:51;28.20;1.00
14924;DHT22;7554;43.600;1.480;2022-09-01T14:11:18;28.20;1.00
14924;DHT22;7554;43.600;1.480;2022-09-01T14:13:47;28.30;1.00
14924;DHT22;7554;43.600;1.480;2022-09-01T14:16:15;28.10;1.00
14924;DHT22;7554;43.600;1.480;2022-09-01T14:18:42;28.20;1.00
14924;DHT22;7554;43.600;1.480;2022-09-01T14:21:11;28.20;1.00
14924;DHT22;7554;43.600;1.480;2022-09-01T14:23:39;28.10;1.00
14924;DHT22;7554;43.600;1.480;2022-09-01T14:26:09;28.20;1.00
14924;DHT22;7554;43.600;1.480;2022-09-01T14:28:37;28.30;1.00
14924;DHT22;7554;43.600;1.480;2022-09-01T14:31:09;28.40;1.00
14924;DHT22;7554;43.600;1.480;2022-09-01T14:33:38;28.20;1.00
14924;DHT22;7554;43.600;1.480;2022-09-01T14:36:07;28.10;1.00
14924;DHT22;7554;43.600;1.480;2022-09-01T14:38:35;28.00;1.00
14924;DHT22;7554;43.600;1.480;2022-09-01T14:41:02;28.00;1.00
14924;DHT22;7554;43.600;1.480;2022-09-01T14:43:29;28.00;1.00
14924;DHT22;7554;43.600;1.480;2022-09-01T14:46:06;28.00;1.00
14924;DHT22;7554;43.600;1.480;2022-09-01T14:48:37;28.10;1.00
14924;DHT22;7554;43.600;1.480;2022-09-01T14:51:07;28.10;1.00
14924;DHT22;7554;43.600;1.480;2022-09-01T14:53:35;28.10;1.00
14924;DHT22;7554;43.600;1.480;2022-09-01T14:56:02;28.20;1.00
14924;DHT22;7554;43.600;1.480;2022-09-01T14:58:30;28.00;1.00
14924;DHT22;7554;43.600;1.480;2022-09-01T15:00:57;28.00;1.00
14924;DHT22;7554;43.600;1.480;2022-09-01T15:03:25;28.10;1.00
14924;DHT22;7554;43.600;1.480;2022-09-01T15:05:54;28.20;1.00
14924;DHT22;7554;43.600;1.480;2022-09-01T15:08:21;28.20;1.00
14924;DHT22;7554;43.600;1.480;2022-09-01T15:10:49;28.20;1.00
14924;DHT22;7554;43.600;1.480;2022-09-01T15:13:17;28.10;1.00
14924;DHT22;7554;43.600;1.480;2022-09-01T15:15:44;28.20;1.00
14924;DHT22;7554;43.600;1.480;2022-09-01T15:18:11;28.20;1.00
14924;DHT22;7554;43.600;1.480;2022-09-01T15:20:40;28.20;1.00
14924;DHT22;7554;43.600;1.480;2022-09-01T15:23:18;28.20;1.00
14924;DHT22;7554;43.600;1.480;2022-09-01T15:25:47;28.20;1.00
14924;DHT22;7554;43.600;1.480;2022-09-01T15:28:15;28.20;1.00
14924;DHT22;7554;43.600;1.480;2022-09-01T15:30:43;28.20;1.00
14924;DHT22;7554;43.600;1.480;2022-09-01T15:33:12;28.00;1.00
14924;DHT22;7554;43.600;1.480;2022-09-01T15:35:40;27.90;1.00
14924;DHT22;7554;43.600;1.480;2022-09-01T15:38:07;27.90;1.00
14924;DHT22;7554;43.600;1.480;2022-09-01T15:40:39;28.00;1.00
14924;DHT22;7554;43.600;1.480;2022-09-01T15:43:06;28.00;1.00
14924;DHT22;7554;43.600;1.480;2022-09-01T15:45:34;28.00;1.00
14924;DHT22;7554;43.600;1.480;2022-09-01T15:48:02;28.00;1.00
14924;DHT22;7554;43.600;1.480;2022-09-01T15:50:29;27.80;1.00
14924;DHT22;7554;43.600;1.480;2022-09-01T15:52:59;27.80;1.00
14924;DHT22;7554;43.600;1.480;2022-09-01T15:55:28;27.80;1.00
14924;DHT22;7554;43.600;1.480;2022-09-01T15:57:57;27.80;1.00
14924;DHT22;7554;43.600;1.480;2022-09-01T16:00:27;27.70;1.00
14924;DHT22;7554;43.600;1.480;2022-09-01T16:02:54;27.70;1.00
14924;DHT22;7554;43.600;1.480;2022-09-01T16:05:26;27.60;1.00
14924;DHT22;7554;43.600;1.480;2022-09-01T16:07:54;27.70;1.00
14924;DHT22;7554;43.600;1.480;2022-09-01T16:10:22;27.70;1.00
14924;DHT22;7554;43.600;1.480;2022-09-01T16:12:49;27.70;1.00
14924;DHT22;7554;43.600;1.480;2022-09-01T16:15:20;27.80;1.00
14924;DHT22;7554;43.600;1.480;2022-09-01T16:20:47;27.70;1.00
14924;DHT22;7554;43.600;1.480;2022-09-01T16:23:18;27.80;1.00
14924;DHT22;7554;43.600;1.480;2022-09-01T16:25:46;28.00;1.00
14924;DHT22;7554;43.600;1.480;2022-09-01T16:28:23;28.00;1.00
14924;DHT22;7554;43.600;1.480;2022-09-01T16:30:57;27.90;1.00
14924;DHT22;7554;43.600;1.480;2022-09-01T16:33:25;27.90;1.00
14924;DHT22;7554;43.600;1.480;2022-09-01T16:36:07;27.90;1.00
14924;DHT22;7554;43.600;1.480;2022-09-01T16:38:46;27.80;1.00
14924;DHT22;7554;43.600;1.480;2022-09-01T16:41:25;27.80;1.00